sensor_id;sensor_type;location;lat;lon;timestamp;temperature;humidity
2633;DHT22;1326;48.692;16.870;2023-09-07T00:02:04;15.90;99.90
2633;DHT22;1326;48.692;16.870;2023-09-07T00:04:32;15.80;99.90
2633;DHT22;1326;48.692;16.870;2023-09-07T00:06:59;15.80;99.90
2633;DHT22;1326;48.692;16.870;2023-09-07T00:09:27;15.80;99.90
2633;DHT22;1326;48.692;16.870;2023-09-07T00:11:55;15.80;99.90
2633;DHT22;1326;48.692;16.870;2023-09-07T00:14:23;15.80;99.90
2633;DHT22;1326;48.692;16.870;2023-09-07T00:16:50;15.80;99.90
2633;DHT22;1326;48.692;16.870;2023-09-07T00:19:18;15.70;99.90
2633;DHT22;1326;48.692;16.870;2023-09-07T00:21:45;15.70;99.90
2633;DHT22;1326;48.692;16.870;2023-09-07T00:24:13;15.70;99.90
2633;DHT22;1326;48.692;16.870;2023-09-07T00:26:42;15.70;99.90
2633;DHT22;1326;48.692;16.870;2023-09-07T00:29:09;15.70;99.90
2633;DHT22;1326;48.692;16.870;2023-09-07T00:31:37;15.70;99.90
2633;DHT22;1326;48.692;16.870;2023-09-07T00:34:04;15.70;99.90
2633;DHT22;1326;48.692;16.870;2023-09-07T00:36:32;15.70;99.90
2633;DHT22;1326;48.692;16.870;2023-09-07T00:38:59;15.70;99.90
2633;DHT22;1326;48.692;16.870;2023-09-07T00:41:27;15.70;99.90
2633;DHT22;1326;48.692;16.870;2023-09-07T00:43:54;15.60;99.90
2633;DHT22;1326;48.692;16.870;2023-09-07T00:46:22;15.60;99.90
2633;DHT22;1326;48.692;16.870;2023-09-07T00:48:50;15.50;99.90
2633;DHT22;1326;48.692;16.870;2023-09-07T00:51:17;15.50;99.90
2633;DHT22;1326;48.692;16.870;2023-09-07T00:53:45;15.40;99.90
2633;DHT22;1326;48.692;16.870;2023-09-07T00:56:13;15.20;99.90
2633;DHT22;1326;48.692;16.870;2023-09-07T00:58:41;15.20;99.90
2633;DHT22;1326;48.692;16.870;2023-09-07T01:01:09;15.10;99.90
2633;DHT22;1326;48.692;16.870;2023-09-07T01:03:37;15.00;99.90
2633;DHT22;1326;48.692;16.870;2023-09-07T01:06:12;15.00;99.90
2633;DHT22;1326;48.692;16.870;2023-09-07T01:08:46;15.00;99.90
2633;DHT22;1326;48.692;16.870;2023-09-07T01:11:15;15.00;99.90
2633;DHT22;1326;48.692;16.870;2023-09-07T01:13:43;14.90;99.90
2633;DHT22;1326;48.692;16.870;2023-09-07T01:16:11;14.90;99.90
2633;DHT22;1326;48.692;16.870;2023-09-07T01:18:39;14.90;99.90
2633;DHT22;1326;48.692;16.870;2023-09-07T01:21:08;15.00;99.90
2633;DHT22;1326;48.692;16.870;2023-09-07T01:23:40;15.10;99.90
2633;DHT22;1326;48.692;16.870;2023-09-07T01:26:08;15.10;99.90
2633;DHT22;1326;48.692;16.870;2023-09-07T01:28:36;15.00;99.90
2633;DHT22;1326;48.692;16.870;2023-09-07T01:31:04;15.00;99.90
2633;DHT22;1326;48.692;16.870;2023-09-07T01:33:33;15.00;99.90
2633;DHT22;1326;48.692;16.870;2023-09-07T01:36:00;15.00;99.90
2633;DHT22;1326;48.692;16.870;2023-09-07T01:38:29;15.00;99.90
2633;DHT22;1326;48.692;16.870;2023-09-07T01:40:56;15.00;99.90
2633;DHT22;1326;48.692;16.870;2023-09-07T01:43:24;15.00;99.90
2633;DHT22;1326;48.692;16.870;2023-09-07T01:45:51;14.90;99.90
2633;DHT22;1326;48.692;16.870;2023-09-07T01:48:19;14.90;99.90
2633;DHT22;1326;48.692;16.870;2023-09-07T01:50:46;14.90;99.90
2633;DHT22;1326;48.692;16.870;2023-09-07T01:53:14;15.00;99.90
2633;DHT22;1326;48.692;16.870;2023-09-07T01:55:41;15.00;99.90
2633;DHT22;1326;48.692;16.870;2023-09-07T01:58:09;15.00;99.90
2633;DHT22;1326;48.692;16.870;2023-09-07T02:00:38;15.00;99.90
2633;DHT22;1326;48.692;16.870;2023-09-07T02:03:06;14.90;99.90
2633;DHT22;1326;48.692;16.870;2023-09-07T02:05:34;14.90;99.90
2633;DHT22;1326;48.692;16.870;2023-09-07T02:08:01;14.90;99.90
2633;DHT22;1326;48.692;16.870;2023-09-07T02:10:30;14.90;99.90
2633;DHT22;1326;48.692;16.870;2023-09-07T02:12:57;14.90;99.90
2633;DHT22;1326;48.692;16.870;2023-09-07T02:15:25;14.80;99.90
2633;DHT22;1326;48.692;16.870;2023-09-07T02:17:53;14.80;99.90
2633;DHT22;1326;48.692;16.870;2023-09-07T02:20:20;14.80;99.90
2633;DHT22;1326;48.692;16.870;2023-09-07T02:22:48;14.70;99.90
2633;DHT22;1326;48.692;16.870;2023-09-07T02:25:15;14.70;99.90
2633;DHT22;1326;48.692;16.870;2023-09-07T02:27:43;14.70;99.90
2633;DHT22;1326;48.692;16.870;2023-09-07T02:30:11;14.70;99.90
2633;DHT22;1326;48.692;16.870;2023-09-07T02:32:38;14.70;99.90
2633;DHT22;1326;48.692;16.870;2023-09-07T02:35:06;14.60;99.90
2633;DHT22;1326;48.692;16.870;2023-09-07T02:37:36;14.60;99.90
2633;DHT22;1326;48.692;16.870;2023-09-07T02:40:04;14.50;99.90
2633;DHT22;1326;48.692;16.870;2023-09-07T02:42:33;14.50;99.90
2633;DHT22;1326;48.692;16.870;2023-09-07T02:45:01;14.40;99.90
2633;DHT22;1326;48.692;16.870;2023-09-07T02:47:28;14.40;99.90
2633;DHT22;1326;48.692;16.870;2023-09-07T02:49:56;14.40;99.90
2633;DHT22;1326;48.692;16.870;2023-09-07T02:52:23;14.40;99.90
2633;DHT22;1326;48.692;16.870;2023-09-07T02:54:51;14.40;99.90
2633;DHT22;1326;48.692;16.870;2023-09-07T02:57:18;14.40;99.90
2633;DHT22;1326;48.692;16.870;2023-09-07T02:59:46;14.30;99.90
2633;DHT22;1326;48.692;16.870;2023-09-07T03:02:13;14.40;99.90
2633;DHT22;1326;48.692;16.870;2023-09-07T03:04:41;14.30;99.90
2633;DHT22;1326;48.692;16.870;2023-09-07T03:07:08;14.30;99.90
2633;DHT22;1326;48.692;16.870;2023-09-07T03:09:36;14.30;99.90
2633;DHT22;1326;48.692;16.870;2023-09-07T03:12:05;14.30;99.90
2633;DHT22;1326;48.692;16.870;2023-09-07T03:14:32;14.30;99.90
2633;DHT22;1326;48.692;16.870;2023-09-07T03:17:00;14.30;99.90
2633;DHT22;1326;48.692;16.870;2023-09-07T03:19:27;14.30;99.90
2633;DHT22;1326;48.692;16.870;2023-09-07T03:21:55;14.20;99.90
2633;DHT22;1326;48.692;16.870;2023-09-07T03:24:22;14.20;99.90
2633;DHT22;1326;48.692;16.870;2023-09-07T03:26:50;14.20;99.90
2633;DHT22;1326;48.692;16.870;2023-09-07T03:29:17;14.20;99.90
2633;DHT22;1326;48.692;16.870;2023-09-07T03:31:45;14.20;99.90
2633;DHT22;1326;48.692;16.870;2023-09-07T03:34:12;14.20;99.90
2633;DHT22;1326;48.692;16.870;2023-09-07T03:36:40;14.20;99.90
2633;DHT22;1326;48.692;16.870;2023-09-07T03:39:08;14.20;99.90
2633;DHT22;1326;48.692;16.870;2023-09-07T03:41:36;14.30;99.90
2633;DHT22;1326;48.692;16.870;2023-09-07T03:44:05;14.40;99.90
2633;DHT22;1326;48.692;16.870;2023-09-07T03:46:33;14.40;99.90
2633;DHT22;1326;48.692;16.870;2023-09-07T03:49:00;14.40;99.90
2633;DHT22;1326;48.692;16.870;2023-09-07T03:51:28;14.40;99.90
2633;DHT22;1326;48.692;16.870;2023-09-07T03:53:56;14.40;99.90
2633;DHT22;1326;48.692;16.870;2023-09-07T03:56:23;14.50;99.90
2633;DHT22;1326;48.692;16.870;2023-09-07T03:58:51;14.50;99.90
2633;DHT22;1326;48.692;16.870;2023-09-07T04:01:18;14.50;99.90
2633;DHT22;1326;48.692;16.870;2023-09-07T04:03:46;14.50;99.90
2633;DHT22;1326;48.692;16.870;2023-09-07T04:06:13;14.50;99.90
2633;DHT22;1326;48.692;16.870;2023-09-07T04:08:41;14.50;99.90
2633;DHT22;1326;48.692;16.870;2023-09-07T04:11:08;14.50;99.90
2633;DHT22;1326;48.692;16.870;2023-09-07T04:13:36;14.50;99.90
2633;DHT22;1326;48.692;16.870;2023-09-07T04:16:03;14.50;99.90
2633;DHT22;1326;48.692;16.870;2023-09-07T04:18:31;14.40;99.90
2633;DHT22;1326;48.692;16.870;2023-09-07T04:21:05;14.40;99.90
2633;DHT22;1326;48.692;16.870;2023-09-07T04:23:33;14.40;99.90
2633;DHT22;1326;48.692;16.870;2023-09-07T04:26:07;14.40;99.90
2633;DHT22;1326;48.692;16.870;2023-09-07T04:28:36;14.40;99.90
2633;DHT22;1326;48.692;16.870;2023-09-07T04:31:04;14.50;99.90
2633;DHT22;1326;48.692;16.870;2023-09-07T04:33:33;14.50;99.90
2633;DHT22;1326;48.692;16.870;2023-09-07T04:36:12;14.40;99.90
2633;DHT22;1326;48.692;16.870;2023-09-07T04:38:40;14.40;99.90
2633;DHT22;1326;48.692;16.870;2023-09-07T04:41:14;14.40;99.90
2633;DHT22;1326;48.692;16.870;2023-09-07T04:43:38;14.40;99.90
2633;DHT22;1326;48.692;16.870;2023-09-07T04:46:13;14.40;99.90
2633;DHT22;1326;48.692;16.870;2023-09-07T04:48:41;14.40;99.90
2633;DHT22;1326;48.692;16.870;2023-09-07T04:51:10;14.50;99.90
2633;DHT22;1326;48.692;16.870;2023-09-07T04:53:39;14.60;99.90
2633;DHT22;1326;48.692;16.870;2023-09-07T04:56:08;14.60;99.90
2633;DHT22;1326;48.692;16.870;2023-09-07T04:58:36;14.60;99.90
2633;DHT22;1326;48.692;16.870;2023-09-07T05:01:07;14.60;99.90
2633;DHT22;1326;48.692;16.870;2023-09-07T05:03:36;14.70;99.90
2633;DHT22;1326;48.692;16.870;2023-09-07T05:06:04;14.80;99.90
2633;DHT22;1326;48.692;16.870;2023-09-07T05:08:32;14.80;99.90
2633;DHT22;1326;48.692;16.870;2023-09-07T05:11:05;14.90;99.90
2633;DHT22;1326;48.692;16.870;2023-09-07T05:13:29;14.90;99.90
2633;DHT22;1326;48.692;16.870;2023-09-07T05:15:59;14.90;99.90
2633;DHT22;1326;48.692;16.870;2023-09-07T05:18:27;15.00;99.90
2633;DHT22;1326;48.692;16.870;2023-09-07T05:20:55;15.00;99.90
2633;DHT22;1326;48.692;16.870;2023-09-07T05:23:23;14.90;99.90
2633;DHT22;1326;48.692;16.870;2023-09-07T05:25:53;15.00;99.90
2633;DHT22;1326;48.692;16.870;2023-09-07T05:28:22;15.10;99.90
2633;DHT22;1326;48.692;16.870;2023-09-07T05:30:50;15.10;99.90
2633;DHT22;1326;48.692;16.870;2023-09-07T05:33:18;15.20;99.90
2633;DHT22;1326;48.692;16.870;2023-09-07T05:35:45;15.20;99.90
2633;DHT22;1326;48.692;16.870;2023-09-07T05:38:13;15.30;99.90
2633;DHT22;1326;48.692;16.870;2023-09-07T05:40:42;15.40;99.90
2633;DHT22;1326;48.692;16.870;2023-09-07T05:43:11;15.40;99.90
2633;DHT22;1326;48.692;16.870;2023-09-07T05:45:42;15.50;99.90
2633;DHT22;1326;48.692;16.870;2023-09-07T05:48:09;15.60;99.90
2633;DHT22;1326;48.692;16.870;2023-09-07T05:50:38;15.60;99.90
2633;DHT22;1326;48.692;16.870;2023-09-07T05:53:06;15.70;99.90
2633;DHT22;1326;48.692;16.870;2023-09-07T05:55:33;15.70;99.90
2633;DHT22;1326;48.692;16.870;2023-09-07T05:58:06;15.80;99.90
2633;DHT22;1326;48.692;16.870;2023-09-07T06:00:35;15.90;99.90
2633;DHT22;1326;48.692;16.870;2023-09-07T06:03:04;16.00;99.90
2633;DHT22;1326;48.692;16.870;2023-09-07T06:05:33;16.10;99.90
2633;DHT22;1326;48.692;16.870;2023-09-07T06:08:01;16.10;99.90
2633;DHT22;1326;48.692;16.870;2023-09-07T06:10:29;16.20;99.90
2633;DHT22;1326;48.692;16.870;2023-09-07T06:12:57;16.30;99.90
2633;DHT22;1326;48.692;16.870;2023-09-07T06:15:25;16.40;99.90
2633;DHT22;1326;48.692;16.870;2023-09-07T06:17:53;16.50;99.90
2633;DHT22;1326;48.692;16.870;2023-09-07T06:20:21;16.50;99.90
2633;DHT22;1326;48.692;16.870;2023-09-07T06:22:49;16.60;99.90
2633;DHT22;1326;48.692;16.870;2023-09-07T06:25:16;16.70;99.90
2633;DHT22;1326;48.692;16.870;2023-09-07T06:27:44;16.80;99.90
2633;DHT22;1326;48.692;16.870;2023-09-07T06:30:11;16.90;99.90
2633;DHT22;1326;48.692;16.870;2023-09-07T06:32:39;16.90;99.90
2633;DHT22;1326;48.692;16.870;2023-09-07T06:35:08;17.10;99.90
2633;DHT22;1326;48.692;16.870;2023-09-07T06:37:36;17.10;99.90
2633;DHT22;1326;48.692;16.870;2023-09-07T06:40:06;17.20;99.90
2633;DHT22;1326;48.692;16.870;2023-09-07T06:42:34;17.30;99.90
2633;DHT22;1326;48.692;16.870;2023-09-07T06:45:02;17.40;99.90
2633;DHT22;1326;48.692;16.870;2023-09-07T06:47:30;17.50;99.90
2633;DHT22;1326;48.692;16.870;2023-09-07T06:49:57;17.50;99.90
2633;DHT22;1326;48.692;16.870;2023-09-07T06:52:25;17.60;99.90
2633;DHT22;1326;48.692;16.870;2023-09-07T06:54:53;17.70;99.90
2633;DHT22;1326;48.692;16.870;2023-09-07T06:57:21;17.80;99.90
2633;DHT22;1326;48.692;16.870;2023-09-07T06:59:48;17.80;99.90
2633;DHT22;1326;48.692;16.870;2023-09-07T07:02:16;17.80;99.90
2633;DHT22;1326;48.692;16.870;2023-09-07T07:04:43;17.90;99.90
2633;DHT22;1326;48.692;16.870;2023-09-07T07:07:12;18.00;99.90
2633;DHT22;1326;48.692;16.870;2023-09-07T07:09:40;18.10;99.90
2633;DHT22;1326;48.692;16.870;2023-09-07T07:12:07;18.20;99.90
2633;DHT22;1326;48.692;16.870;2023-09-07T07:14:35;18.30;99.90
2633;DHT22;1326;48.692;16.870;2023-09-07T07:17:03;18.40;99.90
2633;DHT22;1326;48.692;16.870;2023-09-07T07:19:31;18.50;99.90
2633;DHT22;1326;48.692;16.870;2023-09-07T07:21:59;18.60;99.90
2633;DHT22;1326;48.692;16.870;2023-09-07T07:24:27;18.70;99.90
2633;DHT22;1326;48.692;16.870;2023-09-07T07:26:54;18.80;99.90
2633;DHT22;1326;48.692;16.870;2023-09-07T07:29:22;18.90;99.90
2633;DHT22;1326;48.692;16.870;2023-09-07T07:31:49;19.00;99.90
2633;DHT22;1326;48.692;16.870;2023-09-07T07:34:17;19.10;99.90
2633;DHT22;1326;48.692;16.870;2023-09-07T07:36:44;19.10;99.90
2633;DHT22;1326;48.692;16.870;2023-09-07T07:39:12;19.20;99.90
2633;DHT22;1326;48.692;16.870;2023-09-07T07:41:39;19.30;99.90
2633;DHT22;1326;48.692;16.870;2023-09-07T07:44:07;19.40;99.90
2633;DHT22;1326;48.692;16.870;2023-09-07T07:46:35;19.50;99.90
2633;DHT22;1326;48.692;16.870;2023-09-07T07:49:03;19.60;99.90
2633;DHT22;1326;48.692;16.870;2023-09-07T07:51:30;19.70;99.90
2633;DHT22;1326;48.692;16.870;2023-09-07T07:53:58;19.70;99.90
2633;DHT22;1326;48.692;16.870;2023-09-07T07:56:25;19.90;99.90
2633;DHT22;1326;48.692;16.870;2023-09-07T07:58:53;20.00;99.90
2633;DHT22;1326;48.692;16.870;2023-09-07T08:01:21;20.00;99.90
2633;DHT22;1326;48.692;16.870;2023-09-07T08:03:48;20.10;99.90
2633;DHT22;1326;48.692;16.870;2023-09-07T08:06:16;20.20;99.90
2633;DHT22;1326;48.692;16.870;2023-09-07T08:08:43;20.30;99.90
2633;DHT22;1326;48.692;16.870;2023-09-07T08:11:11;20.30;99.90
2633;DHT22;1326;48.692;16.870;2023-09-07T08:13:39;20.40;99.90
2633;DHT22;1326;48.692;16.870;2023-09-07T08:16:07;20.50;99.90
2633;DHT22;1326;48.692;16.870;2023-09-07T08:18:35;20.60;99.90
2633;DHT22;1326;48.692;16.870;2023-09-07T08:21:02;20.70;99.90
2633;DHT22;1326;48.692;16.870;2023-09-07T08:23:30;20.80;99.90
2633;DHT22;1326;48.692;16.870;2023-09-07T08:25:58;20.90;99.90
2633;DHT22;1326;48.692;16.870;2023-09-07T08:28:26;21.00;99.90
2633;DHT22;1326;48.692;16.870;2023-09-07T08:30:55;21.10;99.90
2633;DHT22;1326;48.692;16.870;2023-09-07T08:33:24;21.20;99.90
2633;DHT22;1326;48.692;16.870;2023-09-07T08:35:59;21.30;99.90
2633;DHT22;1326;48.692;16.870;2023-09-07T08:38:27;21.50;99.90
2633;DHT22;1326;48.692;16.870;2023-09-07T08:41:02;21.50;99.90
2633;DHT22;1326;48.692;16.870;2023-09-07T08:43:35;21.60;99.90
2633;DHT22;1326;48.692;16.870;2023-09-07T08:46:09;21.70;99.90
2633;DHT22;1326;48.692;16.870;2023-09-07T08:48:34;21.80;99.90
2633;DHT22;1326;48.692;16.870;2023-09-07T08:51:02;21.90;99.90
2633;DHT22;1326;48.692;16.870;2023-09-07T08:53:30;22.00;99.90
2633;DHT22;1326;48.692;16.870;2023-09-07T08:56:01;22.20;99.90
2633;DHT22;1326;48.692;16.870;2023-09-07T08:58:28;22.20;99.90
2633;DHT22;1326;48.692;16.870;2023-09-07T09:00:58;22.30;99.90
2633;DHT22;1326;48.692;16.870;2023-09-07T09:03:25;22.40;99.90
2633;DHT22;1326;48.692;16.870;2023-09-07T09:05:56;22.50;99.90
2633;DHT22;1326;48.692;16.870;2023-09-07T09:08:23;22.40;99.90
2633;DHT22;1326;48.692;16.870;2023-09-07T09:11:01;22.40;99.90
2633;DHT22;1326;48.692;16.870;2023-09-07T09:13:32;22.50;99.90
2633;DHT22;1326;48.692;16.870;2023-09-07T09:16:00;22.50;99.90
2633;DHT22;1326;48.692;16.870;2023-09-07T09:18:28;22.60;99.90
2633;DHT22;1326;48.692;16.870;2023-09-07T09:20:56;22.80;99.90
2633;DHT22;1326;48.692;16.870;2023-09-07T09:23:31;22.90;99.90
2633;DHT22;1326;48.692;16.870;2023-09-07T09:26:00;23.00;99.90
2633;DHT22;1326;48.692;16.870;2023-09-07T09:28:28;23.10;99.90
2633;DHT22;1326;48.692;16.870;2023-09-07T09:31:01;23.10;99.90
2633;DHT22;1326;48.692;16.870;2023-09-07T09:33:33;23.20;99.90
2633;DHT22;1326;48.692;16.870;2023-09-07T09:36:01;23.40;99.90
2633;DHT22;1326;48.692;16.870;2023-09-07T09:38:29;23.50;99.90
2633;DHT22;1326;48.692;16.870;2023-09-07T09:40:59;23.60;99.90
2633;DHT22;1326;48.692;16.870;2023-09-07T09:43:27;23.70;99.90
2633;DHT22;1326;48.692;16.870;2023-09-07T09:45:55;23.80;99.90
2633;DHT22;1326;48.692;16.870;2023-09-07T09:48:25;24.00;99.90
2633;DHT22;1326;48.692;16.870;2023-09-07T09:50:54;24.00;99.90
2633;DHT22;1326;48.692;16.870;2023-09-07T09:53:21;24.10;99.90
2633;DHT22;1326;48.692;16.870;2023-09-07T09:55:50;24.20;99.90
2633;DHT22;1326;48.692;16.870;2023-09-07T09:58:20;24.30;98.90
2633;DHT22;1326;48.692;16.870;2023-09-07T10:00:51;24.30;99.80
2633;DHT22;1326;48.692;16.870;2023-09-07T10:03:39;24.40;99.90
2633;DHT22;1326;48.692;16.870;2023-09-07T10:08:58;24.50;99.20
2633;DHT22;1326;48.692;16.870;2023-09-07T10:11:30;24.60;99.40
2633;DHT22;1326;48.692;16.870;2023-09-07T10:14:03;24.60;99.40
2633;DHT22;1326;48.692;16.870;2023-09-07T10:16:50;24.70;99.70
2633;DHT22;1326;48.692;16.870;2023-09-07T10:19:22;24.80;98.80
2633;DHT22;1326;48.692;16.870;2023-09-07T10:21:52;24.80;99.10
2633;DHT22;1326;48.692;16.870;2023-09-07T10:24:27;24.90;99.90
2633;DHT22;1326;48.692;16.870;2023-09-07T10:27:03;24.90;96.90
2633;DHT22;1326;48.692;16.870;2023-09-07T10:29:42;25.00;97.50
2633;DHT22;1326;48.692;16.870;2023-09-07T10:32:10;25.10;93.40
2633;DHT22;1326;48.692;16.870;2023-09-07T10:34:39;25.10;94.10
2633;DHT22;1326;48.692;16.870;2023-09-07T10:37:14;25.10;95.10
2633;DHT22;1326;48.692;16.870;2023-09-07T10:39:40;25.20;96.50
2633;DHT22;1326;48.692;16.870;2023-09-07T10:42:24;25.30;97.20
2633;DHT22;1326;48.692;16.870;2023-09-07T10:44:53;25.40;96.50
2633;DHT22;1326;48.692;16.870;2023-09-07T10:47:21;25.40;96.30
2633;DHT22;1326;48.692;16.870;2023-09-07T10:49:48;25.50;97.30
2633;DHT22;1326;48.692;16.870;2023-09-07T10:52:16;25.50;97.70
2633;DHT22;1326;48.692;16.870;2023-09-07T10:54:43;25.50;98.40
2633;DHT22;1326;48.692;16.870;2023-09-07T10:57:12;25.60;97.20
2633;DHT22;1326;48.692;16.870;2023-09-07T10:59:46;25.70;96.50
2633;DHT22;1326;48.692;16.870;2023-09-07T11:02:14;25.70;97.60
2633;DHT22;1326;48.692;16.870;2023-09-07T11:04:42;25.70;97.40
2633;DHT22;1326;48.692;16.870;2023-09-07T11:07:10;25.70;97.40
2633;DHT22;1326;48.692;16.870;2023-09-07T11:09:41;25.70;97.30
2633;DHT22;1326;48.692;16.870;2023-09-07T11:12:14;25.70;97.70
2633;DHT22;1326;48.692;16.870;2023-09-07T11:14:46;25.70;97.20
2633;DHT22;1326;48.692;16.870;2023-09-07T11:17:13;25.70;97.10
2633;DHT22;1326;48.692;16.870;2023-09-07T11:19:41;25.70;97.40
2633;DHT22;1326;48.692;16.870;2023-09-07T11:22:12;25.70;97.40
2633;DHT22;1326;48.692;16.870;2023-09-07T11:24:40;25.70;97.30
2633;DHT22;1326;48.692;16.870;2023-09-07T11:27:09;25.60;96.60
2633;DHT22;1326;48.692;16.870;2023-09-07T11:29:37;25.50;96.80
2633;DHT22;1326;48.692;16.870;2023-09-07T11:32:07;25.50;97.80
2633;DHT22;1326;48.692;16.870;2023-09-07T11:34:46;25.60;97.60
2633;DHT22;1326;48.692;16.870;2023-09-07T11:37:05;25.60;97.50
2633;DHT22;1326;48.692;16.870;2023-09-07T11:39:32;25.70;97.60
2633;DHT22;1326;48.692;16.870;2023-09-07T11:42:00;26.00;97.30
2633;DHT22;1326;48.692;16.870;2023-09-07T11:44:27;26.30;95.30
2633;DHT22;1326;48.692;16.870;2023-09-07T11:46:55;26.40;94.80
2633;DHT22;1326;48.692;16.870;2023-09-07T11:49:23;26.60;94.20
2633;DHT22;1326;48.692;16.870;2023-09-07T11:51:51;26.70;94.10
2633;DHT22;1326;48.692;16.870;2023-09-07T11:54:18;27.10;93.90
2633;DHT22;1326;48.692;16.870;2023-09-07T11:56:46;27.40;92.80
2633;DHT22;1326;48.692;16.870;2023-09-07T11:59:13;27.80;92.70
2633;DHT22;1326;48.692;16.870;2023-09-07T12:01:43;28.30;91.00
2633;DHT22;1326;48.692;16.870;2023-09-07T12:04:10;28.30;90.50
2633;DHT22;1326;48.692;16.870;2023-09-07T12:06:38;28.90;90.80
2633;DHT22;1326;48.692;16.870;2023-09-07T12:09:07;28.70;88.10
2633;DHT22;1326;48.692;16.870;2023-09-07T12:11:36;29.00;89.50
2633;DHT22;1326;48.692;16.870;2023-09-07T12:14:03;29.70;86.40
2633;DHT22;1326;48.692;16.870;2023-09-07T12:16:31;29.50;82.80
2633;DHT22;1326;48.692;16.870;2023-09-07T12:18:59;29.10;85.50
2633;DHT22;1326;48.692;16.870;2023-09-07T12:21:26;28.90;86.50
2633;DHT22;1326;48.692;16.870;2023-09-07T12:23:54;29.20;86.20
2633;DHT22;1326;48.692;16.870;2023-09-07T12:26:21;29.00;86.20
2633;DHT22;1326;48.692;16.870;2023-09-07T12:28:49;28.90;84.70
2633;DHT22;1326;48.692;16.870;2023-09-07T12:31:16;28.50;86.20
2633;DHT22;1326;48.692;16.870;2023-09-07T12:33:44;28.30;88.00
2633;DHT22;1326;48.692;16.870;2023-09-07T12:36:11;28.20;87.80
2633;DHT22;1326;48.692;16.870;2023-09-07T12:38:39;28.20;86.70
2633;DHT22;1326;48.692;16.870;2023-09-07T12:41:07;27.90;87.60
2633;DHT22;1326;48.692;16.870;2023-09-07T12:43:34;28.00;88.30
2633;DHT22;1326;48.692;16.870;2023-09-07T12:46:02;27.80;88.50
2633;DHT22;1326;48.692;16.870;2023-09-07T12:48:30;27.60;88.40
2633;DHT22;1326;48.692;16.870;2023-09-07T12:50:57;27.50;90.10
2633;DHT22;1326;48.692;16.870;2023-09-07T12:53:25;27.50;89.80
2633;DHT22;1326;48.692;16.870;2023-09-07T12:55:54;27.50;88.10
2633;DHT22;1326;48.692;16.870;2023-09-07T12:58:21;27.50;90.30
2633;DHT22;1326;48.692;16.870;2023-09-07T13:00:49;27.60;90.30
2633;DHT22;1326;48.692;16.870;2023-09-07T13:03:18;27.60;90.80
2633;DHT22;1326;48.692;16.870;2023-09-07T13:05:46;27.60;88.60
2633;DHT22;1326;48.692;16.870;2023-09-07T13:08:14;27.70;89.00
2633;DHT22;1326;48.692;16.870;2023-09-07T13:10:42;27.90;89.70
2633;DHT22;1326;48.692;16.870;2023-09-07T13:13:10;27.90;88.60
2633;DHT22;1326;48.692;16.870;2023-09-07T13:15:37;27.90;89.30
2633;DHT22;1326;48.692;16.870;2023-09-07T13:18:05;27.80;90.50
2633;DHT22;1326;48.692;16.870;2023-09-07T13:20:33;27.80;91.20
2633;DHT22;1326;48.692;16.870;2023-09-07T13:23:00;27.90;91.00
2633;DHT22;1326;48.692;16.870;2023-09-07T13:25:28;27.90;90.60
2633;DHT22;1326;48.692;16.870;2023-09-07T13:27:55;27.80;91.30
2633;DHT22;1326;48.692;16.870;2023-09-07T13:30:23;27.80;90.90
2633;DHT22;1326;48.692;16.870;2023-09-07T13:32:51;27.80;89.60
2633;DHT22;1326;48.692;16.870;2023-09-07T13:35:19;27.70;90.10
2633;DHT22;1326;48.692;16.870;2023-09-07T13:37:47;27.80;90.20
2633;DHT22;1326;48.692;16.870;2023-09-07T13:40:14;27.80;89.90
2633;DHT22;1326;48.692;16.870;2023-09-07T13:42:42;27.80;87.80
2633;DHT22;1326;48.692;16.870;2023-09-07T13:45:10;27.60;86.20
2633;DHT22;1326;48.692;16.870;2023-09-07T13:47:38;27.60;88.40
2633;DHT22;1326;48.692;16.870;2023-09-07T13:50:07;27.60;87.10
2633;DHT22;1326;48.692;16.870;2023-09-07T13:52:35;27.70;87.00
2633;DHT22;1326;48.692;16.870;2023-09-07T13:55:03;27.70;86.20
2633;DHT22;1326;48.692;16.870;2023-09-07T13:57:30;27.70;86.70
2633;DHT22;1326;48.692;16.870;2023-09-07T13:59:58;27.70;86.00
2633;DHT22;1326;48.692;16.870;2023-09-07T14:02:25;27.80;85.20
2633;DHT22;1326;48.692;16.870;2023-09-07T14:04:53;27.80;84.50
2633;DHT22;1326;48.692;16.870;2023-09-07T14:07:20;27.90;85.30
2633;DHT22;1326;48.692;16.870;2023-09-07T14:09:48;27.90;85.30
2633;DHT22;1326;48.692;16.870;2023-09-07T14:12:15;27.90;84.70
2633;DHT22;1326;48.692;16.870;2023-09-07T14:14:43;28.10;84.40
2633;DHT22;1326;48.692;16.870;2023-09-07T14:17:10;28.10;83.70
2633;DHT22;1326;48.692;16.870;2023-09-07T14:19:38;28.10;82.90
2633;DHT22;1326;48.692;16.870;2023-09-07T14:22:05;28.10;82.00
2633;DHT22;1326;48.692;16.870;2023-09-07T14:24:33;28.20;84.20
2633;DHT22;1326;48.692;16.870;2023-09-07T14:27:00;28.20;83.50
2633;DHT22;1326;48.692;16.870;2023-09-07T14:29:28;28.20;81.70
2633;DHT22;1326;48.692;16.870;2023-09-07T14:31:55;28.20;81.30
2633;DHT22;1326;48.692;16.870;2023-09-07T14:34:23;28.20;81.40
2633;DHT22;1326;48.692;16.870;2023-09-07T14:36:52;28.10;80.90
2633;DHT22;1326;48.692;16.870;2023-09-07T14:39:21;28.20;80.10
2633;DHT22;1326;48.692;16.870;2023-09-07T14:41:51;28.10;80.60
2633;DHT22;1326;48.692;16.870;2023-09-07T14:44:21;28.10;81.80
2633;DHT22;1326;48.692;16.870;2023-09-07T14:46:49;28.10;82.30
2633;DHT22;1326;48.692;16.870;2023-09-07T14:49:17;28.20;80.40
2633;DHT22;1326;48.692;16.870;2023-09-07T14:51:44;28.10;80.30
2633;DHT22;1326;48.692;16.870;2023-09-07T14:54:12;28.10;79.20
2633;DHT22;1326;48.692;16.870;2023-09-07T14:56:40;28.20;79.60
2633;DHT22;1326;48.692;16.870;2023-09-07T14:59:08;28.20;79.90
2633;DHT22;1326;48.692;16.870;2023-09-07T15:01:35;28.20;79.40
2633;DHT22;1326;48.692;16.870;2023-09-07T15:04:03;28.20;81.10
2633;DHT22;1326;48.692;16.870;2023-09-07T15:06:30;28.20;79.80
2633;DHT22;1326;48.692;16.870;2023-09-07T15:09:00;28.10;79.10
2633;DHT22;1326;48.692;16.870;2023-09-07T15:11:27;28.10;78.90
2633;DHT22;1326;48.692;16.870;2023-09-07T15:13:55;28.20;79.70
2633;DHT22;1326;48.692;16.870;2023-09-07T15:16:23;28.20;79.70
2633;DHT22;1326;48.692;16.870;2023-09-07T15:18:51;28.20;79.70
2633;DHT22;1326;48.692;16.870;2023-09-07T15:21:19;28.10;77.50
2633;DHT22;1326;48.692;16.870;2023-09-07T15:23:47;28.10;78.00
2633;DHT22;1326;48.692;16.870;2023-09-07T15:26:15;28.10;76.80
2633;DHT22;1326;48.692;16.870;2023-09-07T15:28:42;28.10;77.60
2633;DHT22;1326;48.692;16.870;2023-09-07T15:31:10;28.10;77.10
2633;DHT22;1326;48.692;16.870;2023-09-07T15:33:37;27.90;77.50
2633;DHT22;1326;48.692;16.870;2023-09-07T15:36:05;28.00;78.80
2633;DHT22;1326;48.692;16.870;2023-09-07T15:38:32;27.90;77.70
2633;DHT22;1326;48.692;16.870;2023-09-07T15:41:00;27.90;78.90
2633;DHT22;1326;48.692;16.870;2023-09-07T15:43:30;27.90;78.60
2633;DHT22;1326;48.692;16.870;2023-09-07T15:45:58;27.90;79.30
2633;DHT22;1326;48.692;16.870;2023-09-07T15:48:26;27.90;79.60
2633;DHT22;1326;48.692;16.870;2023-09-07T15:50:54;27.70;79.30
2633;DHT22;1326;48.692;16.870;2023-09-07T15:53:21;27.70;80.60
2633;DHT22;1326;48.692;16.870;2023-09-07T15:55:49;27.70;81.70